sensor_id;sensor_type;location;lat;lon;timestamp;P1;durP1;ratioP1;P2;durP2;ratioP2
41323;SDS011;27073;51.128;4.220;2022-09-12T00:01:31;6.90;;;5.82;;
41323;SDS011;27073;51.128;4.220;2022-09-12T00:03:58;5.80;;;5.18;;
41323;SDS011;27073;51.128;4.220;2022-09-12T00:06:30;6.43;;;5.47;;
41323;SDS011;27073;51.128;4.220;2022-09-12T00:08:59;10.93;;;5.80;;
41323;SDS011;27073;51.128;4.220;2022-09-12T00:11:28;5.65;;;5.15;;
41323;SDS011;27073;51.128;4.220;2022-09-12T00:13:55;6.32;;;5.50;;
41323;SDS011;27073;51.128;4.220;2022-09-12T00:16:25;7.57;;;5.80;;
41323;SDS011;27073;51.128;4.220;2022-09-12T00:18:52;6.85;;;5.88;;
41323;SDS011;27073;51.128;4.220;2022-09-12T00:21:18;7.43;;;6.20;;
41323;SDS011;27073;51.128;4.220;2022-09-12T00:23:45;8.10;;;5.32;;
41323;SDS011;27073;51.128;4.220;2022-09-12T00:26:12;6.13;;;5.53;;
41323;SDS011;27073;51.128;4.220;2022-09-12T00:28:39;6.72;;;6.13;;
41323;SDS011;27073;51.128;4.220;2022-09-12T00:31:07;7.63;;;6.10;;
41323;SDS011;27073;51.128;4.220;2022-09-12T00:33:35;8.65;;;6.47;;
41323;SDS011;27073;51.128;4.220;2022-09-12T00:36:14;9.40;;;6.10;;
41323;SDS011;27073;51.128;4.220;2022-09-12T00:38:42;6.95;;;6.00;;
41323;SDS011;27073;51.128;4.220;2022-09-12T00:41:11;7.85;;;5.90;;
41323;SDS011;27073;51.128;4.220;2022-09-12T00:43:50;7.65;;;5.95;;
41323;SDS011;27073;51.128;4.220;2022-09-12T00:49:17;6.82;;;5.93;;
41323;SDS011;27073;51.128;4.220;2022-09-12T00:52:25;7.32;;;6.63;;
41323;SDS011;27073;51.128;4.220;2022-09-12T00:55:08;7.10;;;6.38;;
41323;SDS011;27073;51.128;4.220;2022-09-12T00:57:39;7.60;;;6.28;;
41323;SDS011;27073;51.128;4.220;2022-09-12T01:00:14;8.75;;;6.65;;
41323;SDS011;27073;51.128;4.220;2022-09-12T01:02:44;7.82;;;6.85;;
41323;SDS011;27073;51.128;4.220;2022-09-12T01:05:13;10.50;;;6.57;;
41323;SDS011;27073;51.128;4.220;2022-09-12T01:07:39;7.22;;;6.53;;
41323;SDS011;27073;51.128;4.220;2022-09-12T01:10:06;8.68;;;6.90;;
41323;SDS011;27073;51.128;4.220;2022-09-12T01:12:33;8.30;;;6.60;;
41323;SDS011;27073;51.128;4.220;2022-09-12T01:15:04;7.93;;;6.40;;
41323;SDS011;27073;51.128;4.220;2022-09-12T01:17:33;7.15;;;6.43;;
41323;SDS011;27073;51.128;4.220;2022-09-12T01:20:28;7.32;;;6.60;;
41323;SDS011;27073;51.128;4.220;2022-09-12T01:23:09;9.63;;;7.57;;
41323;SDS011;27073;51.128;4.220;2022-09-12T01:47:58;8.38;;;7.38;;
41323;SDS011;27073;51.128;4.220;2022-09-12T01:50:39;8.45;;;7.47;;
41323;SDS011;27073;51.128;4.220;2022-09-12T01:53:25;7.55;;;6.80;;
41323;SDS011;27073;51.128;4.220;2022-09-12T01:55:58;10.60;;;8.05;;
41323;SDS011;27073;51.128;4.220;2022-09-12T01:58:42;9.30;;;8.40;;
41323;SDS011;27073;51.128;4.220;2022-09-12T02:01:15;8.32;;;7.57;;
41323;SDS011;27073;51.128;4.220;2022-09-12T02:03:53;8.38;;;7.68;;
41323;SDS011;27073;51.128;4.220;2022-09-12T02:06:25;8.90;;;8.00;;
41323;SDS011;27073;51.128;4.220;2022-09-12T02:08:57;11.90;;;8.07;;
41323;SDS011;27073;51.128;4.220;2022-09-12T02:11:30;9.20;;;8.13;;
41323;SDS011;27073;51.128;4.220;2022-09-12T02:14:06;9.30;;;8.40;;
41323;SDS011;27073;51.128;4.220;2022-09-12T02:16:41;9.07;;;8.27;;
41323;SDS011;27073;51.128;4.220;2022-09-12T02:19:21;10.00;;;8.30;;
41323;SDS011;27073;51.128;4.220;2022-09-12T02:21:49;9.93;;;8.75;;
41323;SDS011;27073;51.128;4.220;2022-09-12T02:24:21;9.68;;;8.75;;
41323;SDS011;27073;51.128;4.220;2022-09-12T02:26:55;9.63;;;8.70;;
41323;SDS011;27073;51.128;4.220;2022-09-12T02:29:25;9.32;;;8.52;;
41323;SDS011;27073;51.128;4.220;2022-09-12T02:31:53;9.40;;;8.40;;
41323;SDS011;27073;51.128;4.220;2022-09-12T02:39:31;10.95;;;9.20;;
41323;SDS011;27073;51.128;4.220;2022-09-12T02:41:59;11.88;;;9.52;;
41323;SDS011;27073;51.128;4.220;2022-09-12T02:44:27;11.65;;;10.40;;
41323;SDS011;27073;51.128;4.220;2022-09-12T02:46:56;10.50;;;9.43;;
41323;SDS011;27073;51.128;4.220;2022-09-12T02:49:27;10.40;;;9.30;;
41323;SDS011;27073;51.128;4.220;2022-09-12T02:51:52;11.40;;;9.48;;
41323;SDS011;27073;51.128;4.220;2022-09-12T02:54:19;11.57;;;10.25;;
41323;SDS011;27073;51.128;4.220;2022-09-12T02:56:45;12.80;;;10.43;;
41323;SDS011;27073;51.128;4.220;2022-09-12T02:59:12;11.38;;;9.45;;
41323;SDS011;27073;51.128;4.220;2022-09-12T03:02:01;12.48;;;10.32;;
41323;SDS011;27073;51.128;4.220;2022-09-12T03:29:08;17.05;;;12.18;;
41323;SDS011;27073;51.128;4.220;2022-09-12T03:31:35;13.75;;;11.60;;
41323;SDS011;27073;51.128;4.220;2022-09-12T03:34:01;13.35;;;12.13;;
41323;SDS011;27073;51.128;4.220;2022-09-12T03:36:28;12.95;;;11.65;;
41323;SDS011;27073;51.128;4.220;2022-09-12T03:38:54;12.80;;;11.50;;
41323;SDS011;27073;51.128;4.220;2022-09-12T03:41:20;16.30;;;11.48;;
41323;SDS011;27073;51.128;4.220;2022-09-12T03:43:46;13.38;;;10.68;;
41323;SDS011;27073;51.128;4.220;2022-09-12T03:46:12;13.63;;;12.05;;
41323;SDS011;27073;51.128;4.220;2022-09-12T03:48:39;12.70;;;11.32;;
41323;SDS011;27073;51.128;4.220;2022-09-12T03:51:06;13.27;;;11.93;;
41323;SDS011;27073;51.128;4.220;2022-09-12T03:53:34;12.50;;;11.20;;
41323;SDS011;27073;51.128;4.220;2022-09-12T03:56:04;13.07;;;11.38;;
41323;SDS011;27073;51.128;4.220;2022-09-12T03:58:35;13.45;;;12.20;;
41323;SDS011;27073;51.128;4.220;2022-09-12T04:01:08;12.85;;;11.68;;
41323;SDS011;27073;51.128;4.220;2022-09-12T04:03:40;13.23;;;11.50;;
41323;SDS011;27073;51.128;4.220;2022-09-12T04:06:07;13.73;;;12.05;;
41323;SDS011;27073;51.128;4.220;2022-09-12T04:08:35;12.65;;;11.38;;
41323;SDS011;27073;51.128;4.220;2022-09-12T04:11:02;15.23;;;11.70;;
41323;SDS011;27073;51.128;4.220;2022-09-12T04:13:29;13.60;;;12.05;;
41323;SDS011;27073;51.128;4.220;2022-09-12T04:15:56;14.00;;;12.60;;
41323;SDS011;27073;51.128;4.220;2022-09-12T04:18:23;14.80;;;12.75;;
41323;SDS011;27073;51.128;4.220;2022-09-12T04:20:49;15.13;;;12.63;;
41323;SDS011;27073;51.128;4.220;2022-09-12T04:23:15;13.63;;;12.20;;
41323;SDS011;27073;51.128;4.220;2022-09-12T04:25:41;14.20;;;12.80;;
41323;SDS011;27073;51.128;4.220;2022-09-12T04:28:06;14.63;;;11.93;;
41323;SDS011;27073;51.128;4.220;2022-09-12T04:30:32;16.25;;;12.85;;
41323;SDS011;27073;51.128;4.220;2022-09-12T04:32:59;15.07;;;12.32;;
41323;SDS011;27073;51.128;4.220;2022-09-12T04:35:25;15.88;;;12.57;;
41323;SDS011;27073;51.128;4.220;2022-09-12T04:37:51;14.10;;;12.60;;
41323;SDS011;27073;51.128;4.220;2022-09-12T04:40:17;14.40;;;12.95;;
41323;SDS011;27073;51.128;4.220;2022-09-12T04:42:43;13.50;;;12.10;;
41323;SDS011;27073;51.128;4.220;2022-09-12T04:45:09;14.00;;;12.50;;
41323;SDS011;27073;51.128;4.220;2022-09-12T04:47:35;14.10;;;12.68;;
41323;SDS011;27073;51.128;4.220;2022-09-12T04:50:01;16.92;;;12.38;;
41323;SDS011;27073;51.128;4.220;2022-09-12T04:52:27;15.18;;;12.50;;
41323;SDS011;27073;51.128;4.220;2022-09-12T04:54:52;13.45;;;11.90;;
41323;SDS011;27073;51.128;4.220;2022-09-12T04:57:18;12.70;;;11.40;;
41323;SDS011;27073;51.128;4.220;2022-09-12T04:59:44;14.32;;;12.02;;
41323;SDS011;27073;51.128;4.220;2022-09-12T05:02:09;13.13;;;11.80;;
41323;SDS011;27073;51.128;4.220;2022-09-12T05:04:35;13.38;;;11.95;;
41323;SDS011;27073;51.128;4.220;2022-09-12T05:07:02;14.55;;;11.98;;
41323;SDS011;27073;51.128;4.220;2022-09-12T05:09:30;14.80;;;11.90;;
41323;SDS011;27073;51.128;4.220;2022-09-12T05:11:56;13.20;;;11.00;;
41323;SDS011;27073;51.128;4.220;2022-09-12T05:14:21;13.02;;;11.63;;
41323;SDS011;27073;51.128;4.220;2022-09-12T05:16:47;12.40;;;11.05;;
41323;SDS011;27073;51.128;4.220;2022-09-12T05:19:13;11.93;;;10.73;;
41323;SDS011;27073;51.128;4.220;2022-09-12T05:21:39;13.13;;;11.25;;
41323;SDS011;27073;51.128;4.220;2022-09-12T05:24:04;13.25;;;11.50;;
41323;SDS011;27073;51.128;4.220;2022-09-12T05:26:30;16.10;;;11.52;;
41323;SDS011;27073;51.128;4.220;2022-09-12T05:28:56;12.65;;;11.43;;
41323;SDS011;27073;51.128;4.220;2022-09-12T05:31:23;13.07;;;11.20;;
41323;SDS011;27073;51.128;4.220;2022-09-12T05:33:51;13.10;;;11.32;;
41323;SDS011;27073;51.128;4.220;2022-09-12T05:36:19;13.57;;;11.90;;
41323;SDS011;27073;51.128;4.220;2022-09-12T05:38:49;13.07;;;11.75;;
41323;SDS011;27073;51.128;4.220;2022-09-12T05:41:16;13.05;;;11.70;;
41323;SDS011;27073;51.128;4.220;2022-09-12T05:43:43;15.60;;;11.48;;
41323;SDS011;27073;51.128;4.220;2022-09-12T05:46:11;12.57;;;10.70;;
41323;SDS011;27073;51.128;4.220;2022-09-12T05:48:39;14.52;;;11.52;;
41323;SDS011;27073;51.128;4.220;2022-09-12T05:51:07;15.10;;;11.40;;
41323;SDS011;27073;51.128;4.220;2022-09-12T05:53:35;13.60;;;10.80;;
41323;SDS011;27073;51.128;4.220;2022-09-12T05:56:06;14.32;;;11.98;;
41323;SDS011;27073;51.128;4.220;2022-09-12T05:58:34;12.85;;;10.80;;
41323;SDS011;27073;51.128;4.220;2022-09-12T06:01:04;13.00;;;11.48;;
41323;SDS011;27073;51.128;4.220;2022-09-12T06:03:32;13.68;;;11.00;;
41323;SDS011;27073;51.128;4.220;2022-09-12T06:06:03;14.70;;;11.82;;
41323;SDS011;27073;51.128;4.220;2022-09-12T06:08:31;12.73;;;11.27;;
41323;SDS011;27073;51.128;4.220;2022-09-12T06:10:58;13.68;;;11.75;;
41323;SDS011;27073;51.128;4.220;2022-09-12T06:13:26;14.07;;;10.88;;
41323;SDS011;27073;51.128;4.220;2022-09-12T06:15:51;15.73;;;11.40;;
41323;SDS011;27073;51.128;4.220;2022-09-12T06:18:18;13.02;;;11.60;;
41323;SDS011;27073;51.128;4.220;2022-09-12T06:20:45;14.45;;;11.90;;
41323;SDS011;27073;51.128;4.220;2022-09-12T06:23:11;12.68;;;11.38;;
41323;SDS011;27073;51.128;4.220;2022-09-12T06:25:36;12.35;;;11.15;;
41323;SDS011;27073;51.128;4.220;2022-09-12T06:28:02;15.70;;;12.27;;
41323;SDS011;27073;51.128;4.220;2022-09-12T06:30:28;16.08;;;11.73;;
41323;SDS011;27073;51.128;4.220;2022-09-12T06:32:54;13.55;;;12.15;;
41323;SDS011;27073;51.128;4.220;2022-09-12T06:35:21;13.02;;;11.02;;
41323;SDS011;27073;51.128;4.220;2022-09-12T06:37:47;12.48;;;11.18;;
41323;SDS011;27073;51.128;4.220;2022-09-12T06:40:13;12.10;;;10.65;;
41323;SDS011;27073;51.128;4.220;2022-09-12T06:42:39;12.50;;;11.20;;
41323;SDS011;27073;51.128;4.220;2022-09-12T06:45:05;12.80;;;11.65;;
41323;SDS011;27073;51.128;4.220;2022-09-12T06:47:31;13.93;;;11.70;;
41323;SDS011;27073;51.128;4.220;2022-09-12T06:49:57;15.57;;;12.23;;
41323;SDS011;27073;51.128;4.220;2022-09-12T06:52:23;13.18;;;11.65;;
41323;SDS011;27073;51.128;4.220;2022-09-12T06:54:49;13.55;;;11.98;;
41323;SDS011;27073;51.128;4.220;2022-09-12T06:57:14;12.93;;;11.02;;
41323;SDS011;27073;51.128;4.220;2022-09-12T06:59:40;15.02;;;11.32;;
41323;SDS011;27073;51.128;4.220;2022-09-12T07:02:07;12.18;;;10.95;;
41323;SDS011;27073;51.128;4.220;2022-09-12T07:04:33;15.88;;;10.77;;
41323;SDS011;27073;51.128;4.220;2022-09-12T07:07:01;14.00;;;10.73;;
41323;SDS011;27073;51.128;4.220;2022-09-12T07:09:26;15.85;;;11.55;;
41323;SDS011;27073;51.128;4.220;2022-09-12T07:11:54;18.17;;;11.55;;
41323;SDS011;27073;51.128;4.220;2022-09-12T07:14:20;13.50;;;12.20;;
41323;SDS011;27073;51.128;4.220;2022-09-12T07:16:46;13.88;;;11.27;;
41323;SDS011;27073;51.128;4.220;2022-09-12T07:19:12;12.88;;;11.07;;
41323;SDS011;27073;51.128;4.220;2022-09-12T07:21:37;12.98;;;11.27;;
41323;SDS011;27073;51.128;4.220;2022-09-12T07:24:04;13.13;;;11.02;;
41323;SDS011;27073;51.128;4.220;2022-09-12T07:26:30;11.70;;;10.52;;
41323;SDS011;27073;51.128;4.220;2022-09-12T07:28:56;12.43;;;10.27;;
41323;SDS011;27073;51.128;4.220;2022-09-12T07:31:24;11.60;;;10.35;;
41323;SDS011;27073;51.128;4.220;2022-09-12T07:33:51;12.43;;;9.68;;
41323;SDS011;27073;51.128;4.220;2022-09-12T07:36:18;12.77;;;9.77;;
41323;SDS011;27073;51.128;4.220;2022-09-12T07:38:46;12.38;;;9.88;;
41323;SDS011;27073;51.128;4.220;2022-09-12T07:41:22;11.18;;;9.10;;
41323;SDS011;27073;51.128;4.220;2022-09-12T07:43:54;13.95;;;10.63;;
41323;SDS011;27073;51.128;4.220;2022-09-12T07:46:22;13.38;;;9.95;;
41323;SDS011;27073;51.128;4.220;2022-09-12T07:48:49;12.20;;;9.48;;
41323;SDS011;27073;51.128;4.220;2022-09-12T07:51:16;10.73;;;9.63;;
41323;SDS011;27073;51.128;4.220;2022-09-12T07:53:43;10.75;;;9.63;;
41323;SDS011;27073;51.128;4.220;2022-09-12T07:56:09;14.10;;;8.52;;
41323;SDS011;27073;51.128;4.220;2022-09-12T07:58:36;10.70;;;8.85;;
41323;SDS011;27073;51.128;4.220;2022-09-12T08:01:06;9.00;;;8.10;;
41323;SDS011;27073;51.128;4.220;2022-09-12T08:03:38;10.68;;;8.65;;
41323;SDS011;27073;51.128;4.220;2022-09-12T08:08:38;9.20;;;8.23;;
41323;SDS011;27073;51.128;4.220;2022-09-12T08:11:05;9.10;;;8.07;;
41323;SDS011;27073;51.128;4.220;2022-09-12T08:13:32;10.27;;;8.40;;
41323;SDS011;27073;51.128;4.220;2022-09-12T08:15:59;10.55;;;8.70;;
41323;SDS011;27073;51.128;4.220;2022-09-12T08:18:27;10.77;;;8.18;;
41323;SDS011;27073;51.128;4.220;2022-09-12T08:20:58;10.82;;;8.35;;
41323;SDS011;27073;51.128;4.220;2022-09-12T08:23:25;9.63;;;7.13;;
41323;SDS011;27073;51.128;4.220;2022-09-12T08:25:55;8.60;;;7.45;;
41323;SDS011;27073;51.128;4.220;2022-09-12T08:28:22;9.63;;;7.80;;
41323;SDS011;27073;51.128;4.220;2022-09-12T08:30:49;10.25;;;7.38;;
41323;SDS011;27073;51.128;4.220;2022-09-12T08:33:15;8.30;;;7.35;;
41323;SDS011;27073;51.128;4.220;2022-09-12T08:35:40;18.80;;;7.55;;
41323;SDS011;27073;51.128;4.220;2022-09-12T08:38:06;10.52;;;7.70;;
41323;SDS011;27073;51.128;4.220;2022-09-12T08:40:32;11.18;;;6.90;;
41323;SDS011;27073;51.128;4.220;2022-09-12T08:43:18;8.93;;;6.65;;
41323;SDS011;27073;51.128;4.220;2022-09-12T08:46:01;10.52;;;7.32;;
41323;SDS011;27073;51.128;4.220;2022-09-12T08:48:36;6.88;;;5.63;;
41323;SDS011;27073;51.128;4.220;2022-09-12T08:51:02;8.57;;;5.90;;
41323;SDS011;27073;51.128;4.220;2022-09-12T08:53:29;7.93;;;6.07;;
41323;SDS011;27073;51.128;4.220;2022-09-12T08:55:58;7.07;;;5.18;;
41323;SDS011;27073;51.128;4.220;2022-09-12T08:58:26;6.80;;;5.10;;
41323;SDS011;27073;51.128;4.220;2022-09-12T09:09:41;6.47;;;4.47;;
41323;SDS011;27073;51.128;4.220;2022-09-12T09:22:50;11.85;;;3.45;;
41323;SDS011;27073;51.128;4.220;2022-09-12T09:26:07;4.22;;;3.25;;
41323;SDS011;27073;51.128;4.220;2022-09-12T09:30:41;6.03;;;4.43;;
41323;SDS011;27073;51.128;4.220;2022-09-12T09:33:09;6.25;;;3.50;;
41323;SDS011;27073;51.128;4.220;2022-09-12T09:35:45;5.28;;;3.40;;
41323;SDS011;27073;51.128;4.220;2022-09-12T09:41:06;5.13;;;3.00;;
41323;SDS011;27073;51.128;4.220;2022-09-12T09:43:44;6.20;;;3.70;;
41323;SDS011;27073;51.128;4.220;2022-09-12T09:46:10;5.30;;;3.72;;
41323;SDS011;27073;51.128;4.220;2022-09-12T09:48:36;6.05;;;3.47;;
41323;SDS011;27073;51.128;4.220;2022-09-12T09:51:06;5.97;;;3.10;;
41323;SDS011;27073;51.128;4.220;2022-09-12T09:56:41;6.03;;;2.85;;
41323;SDS011;27073;51.128;4.220;2022-09-12T09:59:12;3.55;;;2.35;;
41323;SDS011;27073;51.128;4.220;2022-09-12T10:07:15;2.50;;;1.70;;
41323;SDS011;27073;51.128;4.220;2022-09-12T10:09:45;4.97;;;1.67;;
41323;SDS011;27073;51.128;4.220;2022-09-12T10:12:44;3.38;;;1.85;;
41323;SDS011;27073;51.128;4.220;2022-09-12T10:15:23;4.22;;;1.80;;
41323;SDS011;27073;51.128;4.220;2022-09-12T10:17:53;2.58;;;1.55;;
41323;SDS011;27073;51.128;4.220;2022-09-12T10:20:37;2.90;;;1.83;;
41323;SDS011;27073;51.128;4.220;2022-09-12T10:23:50;4.03;;;2.10;;
41323;SDS011;27073;51.128;4.220;2022-09-12T10:25:58;6.68;;;2.13;;
41323;SDS011;27073;51.128;4.220;2022-09-12T10:28:42;3.53;;;1.45;;
41323;SDS011;27073;51.128;4.220;2022-09-12T10:31:15;3.70;;;1.90;;
41323;SDS011;27073;51.128;4.220;2022-09-12T10:33:53;4.00;;;1.67;;
41323;SDS011;27073;51.128;4.220;2022-09-12T10:36:21;4.47;;;1.98;;
41323;SDS011;27073;51.128;4.220;2022-09-12T10:38:49;4.38;;;1.55;;
41323;SDS011;27073;51.128;4.220;2022-09-12T10:41:24;2.92;;;1.70;;
41323;SDS011;27073;51.128;4.220;2022-09-12T10:43:51;2.00;;;1.30;;
41323;SDS011;27073;51.128;4.220;2022-09-12T10:46:19;3.03;;;1.40;;
41323;SDS011;27073;51.128;4.220;2022-09-12T10:48:47;3.03;;;1.40;;
41323;SDS011;27073;51.128;4.220;2022-09-12T10:53:58;4.45;;;1.40;;
41323;SDS011;27073;51.128;4.220;2022-09-12T10:56:29;4.13;;;1.40;;
41323;SDS011;27073;51.128;4.220;2022-09-12T11:13:05;2.05;;;1.27;;
41323;SDS011;27073;51.128;4.220;2022-09-12T11:29:50;2.67;;;1.40;;
41323;SDS011;27073;51.128;4.220;2022-09-12T11:32:31;4.05;;;1.45;;
41323;SDS011;27073;51.128;4.220;2022-09-12T11:46:24;4.15;;;1.42;;
41323;SDS011;27073;51.128;4.220;2022-09-12T11:49:11;3.25;;;1.50;;
41323;SDS011;27073;51.128;4.220;2022-09-12T11:59:57;4.35;;;1.45;;
41323;SDS011;27073;51.128;4.220;2022-09-12T12:02:34;3.28;;;1.63;;
41323;SDS011;27073;51.128;4.220;2022-09-12T12:07:52;4.10;;;1.90;;
41323;SDS011;27073;51.128;4.220;2022-09-12T12:13:02;4.13;;;1.45;;
41323;SDS011;27073;51.128;4.220;2022-09-12T12:15:33;3.88;;;1.30;;
41323;SDS011;27073;51.128;4.220;2022-09-12T12:18:05;3.13;;;1.35;;
41323;SDS011;27073;51.128;4.220;2022-09-12T12:20:39;3.00;;;1.38;;
41323;SDS011;27073;51.128;4.220;2022-09-12T12:23:05;4.90;;;1.35;;
41323;SDS011;27073;51.128;4.220;2022-09-12T12:25:49;7.50;;;1.52;;
41323;SDS011;27073;51.128;4.220;2022-09-12T12:31:06;3.78;;;1.63;;
41323;SDS011;27073;51.128;4.220;2022-09-12T12:36:04;5.25;;;1.50;;
41323;SDS011;27073;51.128;4.220;2022-09-12T12:38:33;3.30;;;1.58;;
41323;SDS011;27073;51.128;4.220;2022-09-12T12:41:44;2.13;;;1.45;;
41323;SDS011;27073;51.128;4.220;2022-09-12T12:43:52;2.40;;;1.30;;
41323;SDS011;27073;51.128;4.220;2022-09-12T12:46:24;4.00;;;1.40;;
41323;SDS011;27073;51.128;4.220;2022-09-12T12:51:30;2.95;;;1.08;;
41323;SDS011;27073;51.128;4.220;2022-09-12T12:53:58;4.13;;;1.13;;
41323;SDS011;27073;51.128;4.220;2022-09-12T12:56:32;4.05;;;1.15;;
41323;SDS011;27073;51.128;4.220;2022-09-12T12:59:21;2.10;;;1.10;;
41323;SDS011;27073;51.128;4.220;2022-09-12T13:01:48;3.05;;;1.63;;
41323;SDS011;27073;51.128;4.220;2022-09-12T13:04:20;1.70;;;0.95;;
41323;SDS011;27073;51.128;4.220;2022-09-12T13:06:59;3.03;;;1.20;;
41323;SDS011;27073;51.128;4.220;2022-09-12T13:12:08;2.63;;;1.33;;
41323;SDS011;27073;51.128;4.220;2022-09-12T13:17:07;8.18;;;1.50;;
41323;SDS011;27073;51.128;4.220;2022-09-12T13:19:49;4.25;;;1.52;;
41323;SDS011;27073;51.128;4.220;2022-09-12T13:22:18;3.10;;;1.35;;
41323;SDS011;27073;51.128;4.220;2022-09-12T13:24:48;3.35;;;1.30;;
41323;SDS011;27073;51.128;4.220;2022-09-12T13:27:17;2.15;;;1.05;;
41323;SDS011;27073;51.128;4.220;2022-09-12T13:29:48;2.47;;;1.00;;
41323;SDS011;27073;51.128;4.220;2022-09-12T13:32:14;5.65;;;1.20;;
41323;SDS011;27073;51.128;4.220;2022-09-12T13:37:42;3.38;;;1.05;;
41323;SDS011;27073;51.128;4.220;2022-09-12T13:40:27;6.53;;;1.20;;
41323;SDS011;27073;51.128;4.220;2022-09-12T13:43:12;4.15;;;1.30;;
41323;SDS011;27073;51.128;4.220;2022-09-12T13:45:40;4.00;;;1.25;;
41323;SDS011;27073;51.128;4.220;2022-09-12T13:48:17;2.95;;;1.10;;
41323;SDS011;27073;51.128;4.220;2022-09-12T13:53:18;2.88;;;0.85;;
41323;SDS011;27073;51.128;4.220;2022-09-12T13:55:51;3.72;;;1.30;;
41323;SDS011;27073;51.128;4.220;2022-09-12T13:58:21;2.83;;;1.13;;
41323;SDS011;27073;51.128;4.220;2022-09-12T14:03:40;3.05;;;0.80;;
41323;SDS011;27073;51.128;4.220;2022-09-12T14:09:36;2.80;;;0.80;;
41323;SDS011;27073;51.128;4.220;2022-09-12T14:12:02;4.10;;;1.80;;
41323;SDS011;27073;51.128;4.220;2022-09-12T14:14:33;2.67;;;1.00;;
41323;SDS011;27073;51.128;4.220;2022-09-12T14:20:02;2.20;;;0.80;;
41323;SDS011;27073;51.128;4.220;2022-09-12T14:22:31;2.28;;;0.98;;
41323;SDS011;27073;51.128;4.220;2022-09-12T14:24:58;2.72;;;1.10;;
41323;SDS011;27073;51.128;4.220;2022-09-12T14:27:26;2.70;;;1.00;;
41323;SDS011;27073;51.128;4.220;2022-09-12T14:30:03;1.95;;;0.80;;
41323;SDS011;27073;51.128;4.220;2022-09-12T14:32:33;2.38;;;0.77;;
41323;SDS011;27073;51.128;4.220;2022-09-12T14:35:18;2.63;;;0.90;;
41323;SDS011;27073;51.128;4.220;2022-09-12T14:37:45;1.77;;;0.60;;
41323;SDS011;27073;51.128;4.220;2022-09-12T14:40:14;4.88;;;1.02;;
41323;SDS011;27073;51.128;4.220;2022-09-12T14:42:49;2.03;;;1.40;;
41323;SDS011;27073;51.128;4.220;2022-09-12T14:45:21;1.90;;;0.73;;
41323;SDS011;27073;51.128;4.220;2022-09-12T14:47:53;3.90;;;1.00;;
41323;SDS011;27073;51.128;4.220;2022-09-12T14:50:24;2.83;;;1.10;;
41323;SDS011;27073;51.128;4.220;2022-09-12T14:55:43;1.33;;;0.80;;
41323;SDS011;27073;51.128;4.220;2022-09-12T14:58:15;1.23;;;0.73;;
41323;SDS011;27073;51.128;4.220;2022-09-12T15:00:53;3.03;;;0.90;;
41323;SDS011;27073;51.128;4.220;2022-09-12T15:03:35;6.95;;;1.50;;
41323;SDS011;27073;51.128;4.220;2022-09-12T15:06:36;4.30;;;1.50;;
41323;SDS011;27073;51.128;4.220;2022-09-12T15:09:04;3.60;;;0.90;;
41323;SDS011;27073;51.128;4.220;2022-09-12T15:11:36;2.63;;;0.75;;
41323;SDS011;27073;51.128;4.220;2022-09-12T15:14:05;1.77;;;0.75;;
41323;SDS011;27073;51.128;4.220;2022-09-12T15:16:40;3.08;;;0.85;;
41323;SDS011;27073;51.128;4.220;2022-09-12T15:19:06;2.13;;;0.95;;
41323;SDS011;27073;51.128;4.220;2022-09-12T15:21:32;3.55;;;0.90;;
41323;SDS011;27073;51.128;4.220;2022-09-12T15:23:58;7.03;;;0.77;;
41323;SDS011;27073;51.128;4.220;2022-09-12T15:26:24;2.53;;;0.80;;
41323;SDS011;27073;51.128;4.220;2022-09-12T15:28:54;4.45;;;0.80;;
41323;SDS011;27073;51.128;4.220;2022-09-12T15:33:50;1.20;;;0.50;;
41323;SDS011;27073;51.128;4.220;2022-09-12T15:36:18;4.25;;;0.77;;
41323;SDS011;27073;51.128;4.220;2022-09-12T15:38:45;2.60;;;0.98;;
41323;SDS011;27073;51.128;4.220;2022-09-12T15:41:16;3.97;;;1.10;;
41323;SDS011;27073;51.128;4.220;2022-09-12T15:43:47;3.72;;;1.02;;
41323;SDS011;27073;51.128;4.220;2022-09-12T15:46:14;3.78;;;0.90;;
41323;SDS011;27073;51.128;4.220;2022-09-12T15:48:41;1.80;;;0.77;;
41323;SDS011;27073;51.128;4.220;2022-09-12T15:51:09;2.13;;;0.60;;
41323;SDS011;27073;51.128;4.220;2022-09-12T15:53:39;5.22;;;1.30;;
41323;SDS011;27073;51.128;4.220;2022-09-12T15:56:05;3.67;;;0.90;;
41323;SDS011;27073;51.128;4.220;2022-09-12T15:58:31;5.45;;;1.10;;
41323;SDS011;27073;51.128;4.220;2022-09-12T16:00:57;4.68;;;0.73;;
41323;SDS011;27073;51.128;4.220;2022-09-12T16:03:26;2.55;;;0.80;;
41323;SDS011;27073;51.128;4.220;2022-09-12T16:05:54;4.55;;;1.13;;
41323;SDS011;27073;51.128;4.220;2022-09-12T16:08:22;6.72;;;0.80;;
41323;SDS011;27073;51.128;4.220;2022-09-12T16:10:48;4.82;;;0.93;;
41323;SDS011;27073;51.128;4.220;2022-09-12T16:13:18;2.40;;;0.77;;
41323;SDS011;27073;51.128;4.220;2022-09-12T16:15:43;4.80;;;0.60;;
41323;SDS011;27073;51.128;4.220;2022-09-12T16:18:09;2.75;;;0.90;;
41323;SDS011;27073;51.128;4.220;2022-09-12T16:20:37;2.67;;;1.02;;
41323;SDS011;27073;51.128;4.220;2022-09-12T16:23:04;2.80;;;0.68;;
41323;SDS011;27073;51.128;4.220;2022-09-12T16:25:31;5.15;;;0.93;;
41323;SDS011;27073;51.128;4.220;2022-09-12T16:27:57;4.03;;;1.10;;
41323;SDS011;27073;51.128;4.220;2022-09-12T16:30:23;2.60;;;0.82;;
41323;SDS011;27073;51.128;4.220;2022-09-12T16:32:50;3.45;;;0.82;;
41323;SDS011;27073;51.128;4.220;2022-09-12T16:35:16;3.95;;;1.15;;
41323;SDS011;27073;51.128;4.220;2022-09-12T16:37:43;6.97;;;0.80;;
41323;SDS011;27073;51.128;4.220;2022-09-12T16:40:08;5.72;;;0.80;;
41323;SDS011;27073;51.128;4.220;2022-09-12T16:42:35;2.72;;;0.73;;
41323;SDS011;27073;51.128;4.220;2022-09-12T16:45:00;4.60;;;1.17;;
41323;SDS011;27073;51.128;4.220;2022-09-12T16:47:26;3.35;;;1.40;;
41323;SDS011;27073;51.128;4.220;2022-09-12T16:49:56;3.05;;;0.75;;
41323;SDS011;27073;51.128;4.220;2022-09-12T16:52:23;2.30;;;0.70;;
41323;SDS011;27073;51.128;4.220;2022-09-12T16:54:49;3.78;;;1.00;;
41323;SDS011;27073;51.128;4.220;2022-09-12T16:57:14;4.18;;;1.33;;
41323;SDS011;27073;51.128;4.220;2022-09-12T16:59:40;2.65;;;1.23;;
41323;SDS011;27073;51.128;4.220;2022-09-12T17:02:06;6.70;;;1.08;;
41323;SDS011;27073;51.128;4.220;2022-09-12T17:04:34;3.72;;;1.00;;
41323;SDS011;27073;51.128;4.220;2022-09-12T17:07:00;3.33;;;0.75;;
41323;SDS011;27073;51.128;4.220;2022-09-12T17:09:26;5.70;;;1.13;;
41323;SDS011;27073;51.128;4.220;2022-09-12T17:11:53;3.67;;;1.17;;
41323;SDS011;27073;51.128;4.220;2022-09-12T17:14:19;4.70;;;1.65;;
41323;SDS011;27073;51.128;4.220;2022-09-12T17:16:45;10.75;;;2.55;;
41323;SDS011;27073;51.128;4.220;2022-09-12T17:19:15;6.13;;;1.63;;
41323;SDS011;27073;51.128;4.220;2022-09-12T17:21:43;5.43;;;1.85;;
41323;SDS011;27073;51.128;4.220;2022-09-12T17:24:11;4.10;;;1.42;;
41323;SDS011;27073;51.128;4.220;2022-09-12T17:26:37;3.30;;;1.13;;
41323;SDS011;27073;51.128;4.220;2022-09-12T17:29:03;4.65;;;1.58;;
41323;SDS011;27073;51.128;4.220;2022-09-12T17:31:29;4.45;;;2.03;;
41323;SDS011;27073;51.128;4.220;2022-09-12T17:33:55;9.85;;;1.60;;
41323;SDS011;27073;51.128;4.220;2022-09-12T17:36:22;4.95;;;1.30;;
41323;SDS011;27073;51.128;4.220;2022-09-12T17:38:48;3.00;;;1.52;;
41323;SDS011;27073;51.128;4.220;2022-09-12T17:41:19;5.43;;;1.15;;
41323;SDS011;27073;51.128;4.220;2022-09-12T17:43:48;3.38;;;1.13;;
41323;SDS011;27073;51.128;4.220;2022-09-12T17:46:16;4.30;;;1.35;;
41323;SDS011;27073;51.128;4.220;2022-09-12T17:48:43;3.65;;;1.02;;
41323;SDS011;27073;51.128;4.220;2022-09-12T17:51:09;4.35;;;1.40;;
41323;SDS011;27073;51.128;4.220;2022-09-12T17:53:36;3.38;;;1.10;;